createdAt,value
2018-05-11T00:01:48.115Z,26.80
2018-05-11T00:04:15.795Z,33.90
2018-05-11T00:06:43.309Z,31.23
2018-05-11T00:09:10.840Z,29.50
2018-05-11T00:11:38.517Z,36.07
2018-05-11T00:14:06.043Z,29.33
2018-05-11T00:16:33.566Z,27.13
2018-05-11T00:19:01.114Z,31.50
2018-05-11T00:21:28.644Z,26.93
2018-05-11T00:23:56.309Z,24.90
2018-05-11T00:26:23.845Z,42.23
2018-05-11T00:28:51.362Z,26.77
2018-05-11T00:31:18.906Z,33.00
2018-05-11T00:33:46.445Z,28.13
2018-05-11T00:36:13.977Z,29.90
2018-05-11T00:38:41.637Z,27.60
2018-05-11T00:41:09.179Z,27.37
2018-05-11T00:43:36.714Z,25.53
2018-05-11T00:46:04.450Z,30.57
2018-05-11T00:48:31.969Z,24.40
2018-05-11T00:50:59.510Z,28.13
2018-05-11T00:53:27.465Z,29.73
2018-05-11T00:55:55.007Z,29.37
2018-05-11T00:58:22.529Z,29.30
2018-05-11T01:00:50.101Z,28.33
2018-05-11T01:03:17.630Z,26.47
2018-05-11T01:05:45.151Z,29.30
2018-05-11T01:08:12.698Z,26.50
2018-05-11T01:10:40.226Z,30.07
2018-05-11T01:13:07.791Z,27.63
2018-05-11T01:15:35.323Z,23.87
2018-05-11T01:18:02.997Z,28.53
2018-05-11T01:20:30.526Z,26.80
2018-05-11T01:22:58.045Z,32.90
2018-05-11T01:25:25.602Z,32.67
2018-05-11T01:27:53.151Z,26.23
2018-05-11T01:30:20.857Z,27.30
2018-05-11T01:32:48.382Z,25.37
2018-05-11T01:35:15.905Z,29.40
2018-05-11T01:37:43.482Z,31.40
2018-05-11T01:40:11.019Z,31.93
2018-05-11T01:42:38.546Z,33.17
2018-05-11T01:45:06.113Z,26.33
2018-05-11T01:47:33.642Z,28.80
2018-05-11T01:50:01.653Z,30.57
2018-05-11T01:52:29.306Z,23.90
2018-05-11T01:54:56.826Z,24.90
2018-05-11T01:57:24.577Z,24.57
2018-05-11T01:59:52.103Z,26.50
2018-05-11T02:02:19.629Z,23.50
2018-05-11T02:04:47.305Z,25.63
2018-05-11T02:07:14.840Z,25.03
2018-05-11T02:09:42.361Z,22.63
2018-05-11T02:12:10.110Z,30.20
2018-05-11T02:14:37.638Z,26.37
2018-05-11T02:17:05.164Z,27.00
2018-05-11T02:19:32.952Z,30.03
2018-05-11T02:22:00.481Z,27.80
2018-05-11T02:24:28.040Z,23.30
2018-05-11T02:26:55.971Z,25.37
2018-05-11T02:29:23.510Z,25.80
2018-05-11T02:31:51.033Z,27.83
2018-05-11T02:34:18.598Z,29.63
2018-05-11T02:36:46.135Z,22.03
2018-05-11T02:39:13.807Z,27.47
2018-05-11T02:41:41.348Z,27.93
2018-05-11T02:44:08.879Z,26.47
2018-05-11T02:46:36.446Z,36.97
2018-05-11T02:49:03.989Z,26.50
2018-05-11T02:51:31.542Z,25.17
2018-05-11T02:53:59.074Z,22.60
2018-05-11T02:56:26.662Z,28.97
2018-05-11T02:58:54.210Z,26.47
2018-05-11T03:01:21.735Z,25.70
2018-05-11T03:03:49.310Z,29.13
2018-05-11T03:06:16.850Z,27.57
2018-05-11T03:08:44.384Z,35.17
2018-05-11T03:11:11.978Z,25.40
2018-05-11T03:13:39.507Z,25.30
2018-05-11T03:16:07.030Z,24.80
2018-05-11T03:18:34.895Z,36.67
2018-05-11T03:21:02.349Z,27.93
2018-05-11T03:23:29.882Z,30.60
2018-05-11T03:25:57.623Z,33.70
2018-05-11T03:28:25.141Z,30.27
2018-05-11T03:30:52.677Z,29.43
2018-05-11T03:33:20.223Z,34.60
2018-05-11T03:35:47.750Z,28.70
2018-05-11T03:38:15.490Z,37.33
2018-05-11T03:40:43.006Z,29.60
2018-05-11T03:43:10.530Z,24.90
2018-05-11T03:45:38.087Z,29.53
2018-05-11T03:48:05.629Z,27.23
2018-05-11T03:50:33.567Z,36.70
2018-05-11T03:53:01.092Z,31.67
2018-05-11T03:55:28.609Z,31.10
2018-05-11T03:57:56.164Z,28.13
2018-05-11T04:00:23.714Z,42.73
2018-05-11T04:03:03.157Z,31.67
2018-05-11T04:05:42.521Z,32.10
2018-05-11T04:08:22.928Z,27.67
2018-05-11T04:10:50.482Z,33.53
2018-05-11T04:13:18.074Z,31.53
2018-05-11T04:15:45.608Z,31.70
2018-05-11T04:18:13.129Z,38.80
2018-05-11T04:20:40.695Z,33.07
2018-05-11T04:23:08.246Z,33.30
2018-05-11T04:25:35.769Z,30.67
2018-05-11T04:28:03.467Z,25.37
2018-05-11T04:30:30.994Z,28.70
2018-05-11T04:32:58.523Z,31.37
2018-05-11T04:35:26.243Z,28.17
2018-05-11T04:37:53.766Z,30.93
2018-05-11T04:40:21.289Z,32.93
2018-05-11T04:42:48.954Z,30.00
2018-05-11T04:45:16.499Z,31.57
2018-05-11T04:47:44.043Z,32.50
2018-05-11T04:50:11.598Z,32.23
2018-05-11T04:52:39.146Z,24.40
2018-05-11T04:55:06.817Z,31.03
2018-05-11T04:57:34.329Z,28.10
2018-05-11T05:00:01.851Z,32.17
2018-05-11T05:02:29.406Z,27.20
2018-05-11T05:04:56.929Z,22.77
2018-05-11T05:07:24.666Z,26.57
2018-05-11T05:09:52.201Z,26.50
2018-05-11T05:12:19.778Z,28.00
2018-05-11T05:14:47.298Z,32.17
2018-05-11T05:17:14.939Z,24.13
2018-05-11T05:19:42.422Z,26.37
2018-05-11T05:22:09.947Z,25.10
2018-05-11T05:24:37.613Z,29.17
2018-05-11T05:27:05.129Z,25.00
2018-05-11T05:29:32.651Z,23.80
2018-05-11T05:32:00.271Z,24.53
2018-05-11T05:34:27.798Z,31.50
2018-05-11T05:36:55.336Z,20.10
2018-05-11T05:39:23.682Z,29.00
2018-05-11T05:41:51.198Z,26.17
2018-05-11T05:44:18.741Z,24.90
2018-05-11T05:46:46.315Z,27.60
2018-05-11T05:49:13.840Z,26.00
2018-05-11T05:51:41.830Z,18.37
2018-05-11T05:54:09.362Z,26.50
2018-05-11T05:56:36.885Z,25.93
2018-05-11T05:59:04.451Z,25.33
2018-05-11T06:01:32.010Z,23.40
2018-05-11T06:03:59.546Z,30.03
2018-05-11T06:06:27.104Z,25.43
2018-05-11T06:08:54.617Z,27.10
2018-05-11T06:11:22.194Z,23.67
2018-05-11T06:13:49.709Z,18.23
2018-05-11T06:16:17.242Z,18.43
2018-05-11T06:18:44.787Z,26.47
2018-05-11T06:21:12.326Z,16.83
2018-05-11T06:23:39.861Z,24.03
2018-05-11T06:26:07.384Z,16.90
2018-05-11T06:28:34.927Z,24.43
2018-05-11T06:31:02.450Z,20.97
2018-05-11T06:33:30.362Z,14.53
2018-05-11T06:35:57.889Z,18.43
2018-05-11T06:38:25.405Z,23.53
2018-05-11T06:40:52.999Z,17.30
2018-05-11T06:43:20.526Z,19.77
2018-05-11T06:45:48.063Z,22.03
2018-05-11T06:48:15.813Z,24.10
2018-05-11T06:50:43.349Z,21.87
2018-05-11T06:53:10.876Z,18.90
2018-05-11T06:55:38.544Z,23.10
2018-05-11T06:58:06.095Z,24.73
2018-05-11T07:00:33.613Z,22.20
2018-05-11T07:03:01.155Z,27.20
2018-05-11T07:05:29.118Z,19.60
2018-05-11T07:07:56.691Z,19.43
2018-05-11T07:10:24.198Z,22.40
2018-05-11T07:12:51.958Z,20.33
2018-05-11T07:15:19.478Z,18.83
2018-05-11T07:17:47.456Z,17.70
2018-05-11T07:20:14.975Z,20.60
2018-05-11T07:22:42.493Z,25.20
2018-05-11T07:25:10.442Z,23.33
2018-05-11T07:27:37.972Z,21.10
2018-05-11T07:30:05.501Z,20.83
2018-05-11T07:32:33.041Z,19.60
2018-05-11T07:35:00.624Z,17.83
2018-05-11T07:37:28.130Z,26.03
2018-05-11T07:39:55.674Z,18.37
2018-05-11T07:42:23.237Z,14.50
2018-05-11T07:44:50.764Z,27.03
2018-05-11T07:47:18.791Z,12.13
2018-05-11T07:49:46.311Z,23.73
2018-05-11T07:52:13.837Z,12.20
2018-05-11T07:54:41.378Z,16.83
2018-05-11T07:57:08.921Z,14.43
2018-05-11T07:59:36.489Z,15.63
2018-05-11T08:02:04.050Z,15.90
2018-05-11T08:04:31.561Z,13.00
2018-05-11T08:06:59.102Z,9.10
2018-05-11T08:09:26.622Z,17.67
2018-05-11T08:11:54.198Z,13.17
2018-05-11T08:14:21.788Z,16.43
2018-05-11T08:16:49.279Z,9.67
2018-05-11T08:19:16.833Z,16.93
2018-05-11T08:21:44.349Z,17.40
2018-05-11T08:24:11.889Z,20.70
2018-05-11T08:26:39.496Z,20.70
2018-05-11T08:29:07.038Z,21.13
2018-05-11T08:31:34.594Z,27.87
2018-05-11T08:34:02.151Z,34.10
2018-05-11T08:36:29.702Z,30.00
2018-05-11T08:38:57.227Z,22.63
2018-05-11T08:41:24.783Z,21.63
2018-05-11T08:43:52.301Z,26.97
2018-05-11T08:46:19.939Z,15.20
2018-05-11T08:48:47.422Z,13.20
2018-05-11T08:51:14.954Z,19.97
2018-05-11T08:53:42.498Z,17.03
2018-05-11T08:56:10.023Z,19.37
2018-05-11T08:58:37.579Z,16.00
2018-05-11T09:01:05.105Z,17.77
2018-05-11T09:03:32.646Z,20.63
2018-05-11T09:06:00.182Z,20.17
2018-05-11T09:08:27.705Z,16.00
2018-05-11T09:10:55.245Z,19.03
2018-05-11T09:13:22.778Z,20.50
2018-05-11T09:15:50.510Z,21.00
2018-05-11T09:18:18.028Z,14.57
2018-05-11T09:20:45.545Z,11.83
2018-05-11T09:23:13.081Z,10.20
2018-05-11T09:25:40.618Z,9.33
2018-05-11T09:28:08.134Z,6.93
2018-05-11T09:30:35.747Z,10.10
2018-05-11T09:33:03.274Z,11.07
2018-05-11T09:35:30.798Z,13.80
2018-05-11T09:37:58.393Z,10.10
2018-05-11T09:40:25.920Z,13.20
2018-05-11T09:42:53.446Z,18.13
2018-05-11T09:45:20.985Z,10.80
2018-05-11T09:47:48.511Z,13.10
2018-05-11T09:50:16.226Z,19.13
2018-05-11T09:52:43.762Z,10.57
2018-05-11T09:55:11.277Z,15.40
2018-05-11T09:57:38.830Z,14.57
2018-05-11T10:00:06.374Z,10.97
2018-05-11T10:02:33.959Z,12.20
2018-05-11T10:05:01.487Z,12.20
2018-05-11T10:07:29.005Z,14.00
2018-05-11T10:09:56.591Z,10.50
2018-05-11T10:12:24.118Z,12.53
2018-05-11T10:14:51.750Z,10.80
2018-05-11T10:17:19.295Z,14.37
2018-05-11T10:19:46.905Z,11.10
2018-05-11T10:22:14.434Z,12.60
2018-05-11T10:24:41.956Z,12.93
2018-05-11T10:27:09.509Z,16.60
2018-05-11T10:29:37.053Z,18.57
2018-05-11T10:32:04.592Z,18.10
2018-05-11T10:34:32.198Z,24.17
2018-05-11T10:36:59.731Z,28.47
2018-05-11T10:39:27.271Z,18.97
2018-05-11T10:41:55.162Z,24.17
2018-05-11T10:44:22.678Z,21.10
2018-05-11T10:46:50.200Z,24.93
2018-05-11T10:49:17.754Z,20.87
2018-05-11T10:51:45.762Z,24.90
2018-05-11T10:54:13.295Z,16.60
2018-05-11T10:56:40.839Z,20.17
2018-05-11T10:59:08.409Z,21.23
2018-05-11T11:01:35.944Z,17.50
2018-05-11T11:04:03.636Z,18.10
2018-05-11T11:06:31.157Z,20.40
2018-05-11T11:08:58.673Z,21.77
2018-05-11T11:11:26.249Z,17.97
2018-05-11T11:13:53.898Z,14.63
2018-05-11T11:16:21.421Z,19.23
2018-05-11T11:18:48.966Z,17.20
2018-05-11T11:21:16.501Z,26.03
2018-05-11T11:23:44.384Z,21.53
2018-05-11T11:26:11.910Z,19.80
2018-05-11T11:28:39.429Z,18.80
2018-05-11T11:31:07.049Z,18.80
2018-05-11T11:33:34.522Z,18.87
2018-05-11T11:36:02.087Z,15.97
2018-05-11T11:38:29.628Z,15.90
2018-05-11T11:40:57.167Z,21.83
2018-05-11T11:43:24.901Z,22.13
2018-05-11T11:45:52.431Z,21.50
2018-05-11T11:48:19.952Z,20.27
2018-05-11T11:50:47.507Z,17.93
2018-05-11T11:53:15.039Z,22.63
2018-05-11T11:55:42.614Z,19.87
2018-05-11T11:58:10.146Z,18.60
2018-05-11T12:00:37.713Z,23.50
2018-05-11T12:03:05.262Z,19.33
2018-05-11T12:05:32.785Z,17.97
2018-05-11T12:08:00.340Z,18.23
2018-05-11T12:10:27.873Z,20.13
2018-05-11T12:12:55.461Z,20.87
2018-05-11T12:15:23.010Z,21.63
2018-05-11T12:17:50.533Z,17.00
2018-05-11T12:20:18.089Z,18.40
2018-05-11T12:22:45.639Z,14.87
2018-05-11T12:25:13.185Z,20.03
2018-05-11T12:27:40.730Z,21.07
2018-05-11T12:30:08.305Z,16.03
2018-05-11T12:32:35.821Z,16.00
2018-05-11T12:35:03.351Z,16.00
2018-05-11T12:37:31.001Z,16.00
2018-05-11T12:39:58.610Z,15.67
2018-05-11T12:42:26.075Z,12.20
2018-05-11T12:44:53.645Z,15.07
2018-05-11T12:47:21.179Z,20.43
2018-05-11T12:49:48.743Z,19.10
2018-05-11T12:52:16.301Z,21.27
2018-05-11T12:57:17.938Z,18.13
2018-05-11T12:59:45.477Z,19.83
2018-05-11T13:02:13.027Z,20.03
2018-05-11T13:04:40.615Z,20.27
2018-05-11T13:07:08.179Z,17.30
2018-05-11T13:09:35.727Z,15.10
2018-05-11T13:12:03.274Z,15.27
2018-05-11T13:14:30.837Z,14.60
2018-05-11T13:16:58.425Z,24.57
2018-05-11T13:19:25.960Z,15.90
2018-05-11T13:21:53.481Z,18.80
2018-05-11T13:24:21.020Z,17.10
2018-05-11T13:26:48.560Z,18.03
2018-05-11T13:29:16.086Z,16.50
2018-05-11T13:31:43.979Z,15.00
2018-05-11T13:34:11.510Z,18.17
2018-05-11T13:36:39.050Z,17.00
2018-05-11T13:39:06.605Z,17.90
2018-05-11T13:41:34.121Z,14.30
2018-05-11T13:44:01.718Z,16.87
2018-05-11T13:46:29.248Z,15.17
2018-05-11T13:48:56.762Z,18.57
2018-05-11T13:51:24.442Z,19.97
2018-05-11T13:53:51.962Z,15.60
2018-05-11T13:56:19.571Z,17.27
2018-05-11T13:58:47.067Z,16.33
2018-05-11T14:01:14.581Z,14.37
2018-05-11T14:03:42.138Z,11.90
2018-05-11T14:06:09.681Z,15.70
2018-05-11T14:08:37.226Z,11.50
2018-05-11T14:11:04.763Z,11.50
2018-05-11T14:13:32.278Z,11.67
2018-05-11T14:15:59.826Z,14.07
2018-05-11T14:18:27.347Z,17.57
2018-05-11T14:20:54.885Z,19.43
2018-05-11T14:24:42.497Z,14.40
2018-05-11T14:27:10.014Z,19.53
2018-05-11T14:29:37.567Z,14.20
2018-05-11T14:32:05.142Z,9.93
2018-05-11T14:34:32.709Z,13.27
2018-05-11T14:37:00.218Z,9.87
2018-05-11T14:39:27.761Z,11.87
2018-05-11T14:41:55.413Z,14.27
2018-05-11T14:44:22.934Z,16.00
2018-05-11T14:46:50.465Z,14.57
2018-05-11T14:49:18.409Z,19.00
2018-05-11T14:51:45.929Z,15.37
2018-05-11T14:54:13.450Z,13.67
2018-05-11T14:56:40.992Z,13.87
2018-05-11T14:59:08.514Z,11.40
2018-05-11T15:01:36.060Z,14.00
2018-05-11T15:04:03.590Z,27.73
2018-05-11T15:06:31.137Z,16.10
2018-05-11T15:08:58.672Z,15.83
2018-05-11T15:11:26.188Z,16.73
2018-05-11T15:13:53.731Z,16.30
2018-05-11T15:16:21.246Z,15.40
2018-05-11T15:18:48.801Z,15.63
2018-05-11T15:21:16.314Z,17.80
2018-05-11T15:23:43.940Z,13.50
2018-05-11T15:26:11.399Z,12.67
2018-05-11T15:28:38.948Z,12.73
2018-05-11T15:31:06.495Z,13.30
2018-05-11T15:33:34.059Z,12.30
2018-05-11T15:36:01.582Z,10.37
2018-05-11T15:38:29.104Z,15.60
2018-05-11T15:40:56.641Z,16.87
2018-05-11T15:43:24.166Z,15.20
2018-05-11T15:45:51.711Z,13.07
2018-05-11T15:48:19.221Z,13.13
2018-05-11T15:50:46.741Z,15.50
2018-05-11T15:53:14.340Z,12.20
2018-05-11T15:55:41.864Z,13.57
2018-05-11T15:58:09.428Z,11.87
2018-05-11T16:00:37.039Z,13.53
2018-05-11T16:03:04.597Z,9.90
2018-05-11T16:05:32.157Z,11.50
2018-05-11T16:07:59.722Z,16.30
2018-05-11T16:10:27.251Z,10.60
2018-05-11T16:12:54.902Z,14.70
2018-05-11T16:15:22.351Z,10.70
2018-05-11T16:17:49.893Z,12.13
2018-05-11T16:20:17.442Z,12.20
2018-05-11T16:22:45.015Z,12.37
2018-05-11T16:25:12.669Z,12.70
2018-05-11T16:27:40.203Z,9.87
2018-05-11T16:30:07.730Z,13.40
2018-05-11T16:32:35.270Z,12.50
2018-05-11T16:35:02.808Z,16.00
2018-05-11T16:37:30.378Z,13.30
2018-05-11T16:39:58.121Z,13.30
2018-05-11T16:42:25.643Z,10.83
2018-05-11T16:44:53.190Z,11.33
2018-05-11T16:47:20.708Z,12.57
2018-05-11T16:49:48.251Z,15.13
2018-05-11T16:52:15.769Z,11.97
2018-05-11T16:54:43.315Z,12.13
2018-05-11T16:57:10.859Z,10.67
2018-05-11T16:59:38.393Z,9.60
2018-05-11T17:02:05.918Z,13.20
2018-05-11T17:04:33.891Z,9.43
2018-05-11T17:07:01.423Z,9.43
2018-05-11T17:09:28.955Z,10.73
2018-05-11T17:11:56.602Z,8.00
2018-05-11T17:14:24.113Z,11.67
2018-05-11T17:16:51.635Z,13.97
2018-05-11T17:19:19.189Z,11.20
2018-05-11T17:21:46.701Z,10.30
2018-05-11T17:24:14.351Z,10.73
2018-05-11T17:26:41.889Z,13.67
2018-05-11T17:29:09.403Z,10.90
2018-05-11T17:31:36.957Z,7.87
2018-05-11T17:34:04.478Z,8.83
2018-05-11T17:36:32.020Z,9.87
2018-05-11T17:39:00.153Z,9.87
2018-05-11T17:41:27.659Z,9.50
2018-05-11T17:43:55.173Z,8.93
2018-05-11T17:46:22.764Z,10.40
2018-05-11T17:48:50.286Z,10.77
2018-05-11T17:51:17.817Z,15.30
2018-05-11T17:53:45.366Z,16.13
2018-05-11T17:56:12.895Z,13.80
2018-05-11T17:58:40.472Z,15.53
2018-05-11T18:01:07.997Z,8.47
2018-05-11T18:03:35.533Z,8.20
2018-05-11T18:06:03.049Z,9.90
2018-05-11T18:08:30.639Z,8.07
2018-05-11T18:10:58.159Z,13.00
2018-05-11T18:13:25.673Z,9.67
2018-05-11T18:15:53.378Z,12.63
2018-05-11T18:18:20.897Z,13.30
2018-05-11T18:20:48.415Z,14.40
2018-05-11T18:23:15.973Z,14.73
2018-05-11T18:25:43.494Z,11.67
2018-05-11T18:28:11.086Z,13.60
2018-05-11T18:30:38.781Z,10.97
2018-05-11T18:33:06.307Z,11.63
2018-05-11T18:35:33.835Z,18.10
2018-05-11T18:38:01.427Z,16.10
2018-05-11T18:40:28.957Z,16.80
2018-05-11T18:42:56.487Z,14.00
2018-05-11T18:45:24.138Z,18.00
2018-05-11T18:47:51.723Z,13.10
2018-05-11T18:50:19.257Z,14.67
2018-05-11T18:52:46.804Z,15.47
2018-05-11T18:55:14.816Z,12.80
2018-05-11T18:57:42.422Z,15.00
2018-05-11T19:00:09.970Z,13.77
2018-05-11T19:02:37.516Z,11.63
2018-05-11T19:05:05.861Z,15.00
2018-05-11T19:07:33.446Z,18.63
2018-05-11T19:10:00.972Z,15.43
2018-05-11T19:12:28.557Z,12.30
2018-05-11T19:14:56.312Z,16.17
2018-05-11T19:17:23.845Z,21.37
2018-05-11T19:19:51.802Z,16.70
2018-05-11T19:22:19.320Z,18.80
2018-05-11T19:24:46.856Z,16.17
2018-05-11T19:27:14.401Z,18.27
2018-05-11T19:29:41.943Z,15.50
2018-05-11T19:32:09.615Z,18.53
2018-05-11T19:34:37.968Z,19.90
2018-05-11T19:37:05.503Z,13.50
2018-05-11T19:39:33.041Z,17.23
2018-05-11T19:42:00.611Z,18.40
2018-05-11T19:44:28.276Z,16.47
2018-05-11T19:46:55.806Z,15.13
2018-05-11T19:49:23.321Z,17.87
2018-05-11T19:51:50.865Z,16.93
2018-05-11T19:54:18.402Z,15.60
2018-05-11T19:56:45.959Z,18.50
2018-05-11T19:59:13.486Z,15.80
2018-05-11T20:01:41.048Z,16.17
2018-05-11T20:04:08.643Z,20.20
2018-05-11T20:06:36.174Z,20.93
2018-05-11T20:09:03.861Z,18.53
2018-05-11T20:11:31.387Z,18.87
2018-05-11T20:13:58.922Z,20.47
2018-05-11T20:16:26.471Z,18.13
2018-05-11T20:18:53.994Z,16.80
2018-05-11T20:21:21.638Z,20.47
2018-05-11T20:23:49.170Z,18.33
2018-05-11T20:26:17.338Z,21.67
2018-05-11T20:28:44.891Z,21.57
2018-05-11T20:31:12.415Z,24.57
2018-05-11T20:33:40.061Z,25.80
2018-05-11T20:36:07.577Z,23.10
2018-05-11T20:38:35.101Z,27.73
2018-05-11T20:41:03.675Z,23.43
2018-05-11T20:43:31.194Z,20.07
2018-05-11T20:45:58.734Z,20.20
2018-05-11T20:48:26.286Z,24.63
2018-05-11T20:50:53.842Z,18.00
2018-05-11T20:53:21.789Z,21.53
2018-05-11T20:55:49.314Z,20.37
2018-05-11T20:58:16.832Z,18.33
2018-05-11T21:00:44.697Z,21.50
2018-05-11T21:03:12.250Z,26.33
2018-05-11T21:05:39.841Z,23.97
2018-05-11T21:08:08.001Z,22.70
2018-05-11T21:10:35.589Z,25.27
2018-05-11T21:13:03.133Z,19.33
2018-05-11T21:15:30.681Z,22.87
2018-05-11T21:17:58.225Z,27.40
2018-05-11T21:20:25.855Z,23.60
2018-05-11T21:22:53.422Z,26.47
2018-05-11T21:25:20.959Z,25.27
2018-05-11T21:27:48.510Z,28.60
2018-05-11T21:30:16.109Z,27.47
2018-05-11T21:32:43.635Z,29.90
2018-05-11T21:35:11.165Z,33.90
2018-05-11T21:37:38.738Z,27.00
2018-05-11T21:40:06.262Z,24.47
2018-05-11T21:42:33.781Z,27.33
2018-05-11T21:45:01.362Z,23.47
2018-05-11T21:47:28.884Z,28.60
2018-05-11T21:49:56.414Z,25.93
2018-05-11T21:52:23.959Z,28.10
2018-05-11T21:54:51.629Z,25.37
2018-05-11T21:57:19.154Z,27.40
2018-05-11T21:59:46.699Z,31.83
2018-05-11T22:02:14.250Z,24.43
2018-05-11T22:04:41.778Z,24.87
2018-05-11T22:07:09.438Z,27.17
2018-05-11T22:09:36.967Z,29.20
2018-05-11T22:12:04.497Z,27.13
2018-05-11T22:14:32.059Z,24.53
2018-05-11T22:16:59.602Z,23.87
2018-05-11T22:19:27.295Z,28.87
2018-05-11T22:21:54.828Z,25.73
2018-05-11T22:24:22.376Z,22.03
2018-05-11T22:26:50.051Z,26.23
2018-05-11T22:29:17.592Z,28.23
2018-05-11T22:31:45.126Z,25.63
2018-05-11T22:34:12.686Z,26.83
2018-05-11T22:36:40.230Z,26.70
2018-05-11T22:39:07.885Z,24.47
2018-05-11T22:41:35.418Z,26.47
2018-05-11T22:44:02.976Z,27.97
2018-05-11T22:46:30.558Z,24.20
2018-05-11T22:48:58.434Z,26.73
2018-05-11T22:51:25.968Z,26.33
2018-05-11T22:53:53.495Z,21.60
2018-05-11T22:56:21.067Z,26.60
2018-05-11T22:58:48.593Z,27.30
2018-05-11T23:01:16.113Z,33.27
2018-05-11T23:03:43.820Z,24.60
2018-05-11T23:06:11.336Z,25.73
2018-05-11T23:08:38.882Z,30.00
2018-05-11T23:11:06.442Z,19.80
2018-05-11T23:13:33.971Z,23.80
2018-05-11T23:16:01.683Z,23.17
2018-05-11T23:18:29.214Z,30.77
2018-05-11T23:20:56.763Z,26.73
2018-05-11T23:23:24.318Z,26.30
2018-05-11T23:25:51.917Z,21.37
2018-05-11T23:28:19.462Z,25.17
2018-05-11T23:30:46.987Z,30.20
2018-05-11T23:33:14.583Z,23.63
2018-05-11T23:35:42.114Z,29.47
2018-05-11T23:38:09.708Z,21.97
2018-05-11T23:40:37.261Z,22.47
2018-05-11T23:43:04.794Z,28.10
2018-05-11T23:45:32.357Z,26.70
2018-05-11T23:47:59.890Z,30.63
2018-05-11T23:50:27.707Z,25.13
2018-05-11T23:52:55.239Z,26.17
2018-05-11T23:55:22.778Z,25.07
2018-05-11T23:57:50.326Z,24.50
